Airfield :
LOGIN :

Register | Disclaimer

   EN    FR    IT 

 










Legend :    VFR   Marginal VFR   IFR   Intensive IFR   Very Intensive IFR
Visi :
Ceiling :
>= 8 km
>= 3000ft
5 to 8 km
1000 to 3000 ft
1500m to 5 km
500 to 1000 ft
800 to 1500m
200 to 500 ft
< 800m
< 200 ft
Symbols :   Thunderstorms  Fog  Heavy snow  Heavy precipitations  Wind > 20 kt
SIGMETs :     Misc.  Thunderstorms  Icing  Turbulence  Mountain Waves  Volcanic Ashes







- Airport Elevation : 84 ft
- Download approach charts


LFBC - Cazaux

CURRENT METAR :
  • 250430Z AUTO 00000KT 9999 OVC035 10/08 Q1002

EXPIRED METARs :
  • 250400Z AUTO VRB02KT 9999 FEW018 BKN033 OVC039 10/08 Q1002
  • 250330Z AUTO VRB02KT 9999 -RA FEW027/// SCT032/// BKN040/// ///TCU 10/08 Q1001
  • 250300Z AUTO VRB02KT 9999 -RA BKN023/// BKN028/// BKN039/// ///TCU 10/08 Q1001
  • 250230Z AUTO VRB01KT 9999 -RA BKN038/// OVC045/// ///TCU 11/07 Q1001
  • 250200Z AUTO 27005KT 9999 BKN039/// OVC058/// ///TCU 11/07 Q1001

TAF TAF LFBC
Valid from the 24 at 21:00 until the 25 at 21:00 UTC


242000Z 2421/2521 16018KT CAVOK
TEMPO 2421/2507 22010G20KT 4000 SHRA BKN040TCU
BECMG 2509/2511 23015G30KT
BECMG 2515/2517 VRB02KT
No reported NOTAMs for that airfield.
2 SIGMETs reported for the Bordeaux FIR (LFBB) :
 
Severe mountain waves
LFBB SIGMET 2 VALID 250300/250700 LFPW
LFBB BORDEAUX FIR/UIR SEV MTW FCST WI N4245 E00230 - N4215 E00230 - N4230 E00045 - N4300 E00100 - N4245 E00230 SFC/FL370 STNR WKN=
Severe turbulence
LFBB SIGMET 1 VALID 250300/250700 LFPW
LFBB BORDEAUX FIR/UIR SEV TURB FCST WI N4630 E00300 - N4315 E00230 - N4330 E00130 - N4630 E00300 SFC/FL080 STNR WKN=



MET'MAP, your aeronautical weather chart ! - Copyright ORBIFLY December 2007 - Disclaimer

ORBIFLY MET'MAP TEAM :

Programming & Development : Alexandra Zaïnal
Concept & Development : Baudouin d'Aumeries
Co-Development & Prog : Marc-Olivier Méhu
Technical & hardware support : Manuel Goepfert

Contact : metmap@orbifly.com




SOURCES & CREDITS :

   NOAA